Aérodrome :
LOGIN :

S'inscrire | Disclaimer

   EN    FR    IT 

 










Légende :    VFR   VFR Marginal   IFR   IFR Intensif   IFR Très Intensif
Visi : 
Plafond : 
>= 8 km
>= 3000ft
5 à 8 km
1000 à 3000 ft
1500m à 5 km
500 à 1000 ft
800 à 1500m
200 à 500 ft
< 800m
< 200 ft
Symboles :   Orages  Brouillard  Fortes neiges  Fortes précipitations  Vent > 20 kt
SIGMETs :   Divers  Orages  Givrage  Turbulence  Onde Orograph.  Cendres Volcan.






- Altitude de l'aérodrome : 436 ft
- Code IATA : BTS


LZIB - Bratislava

DERNIER METAR :
  • 030700Z VRB01KT CAVOK 19/14 Q1017 NOSIG

METARs EXPIRÉS :
  • 030630Z VRB01KT CAVOK 18/13 Q1017 NOSIG
  • 030600Z 06002KT CAVOK 17/13 Q1017 NOSIG
  • 030530Z 09002KT CAVOK 16/13 Q1017 NOSIG
  • 030500Z 02002KT CAVOK 15/13 Q1017 NOSIG
  • 030430Z VRB02KT CAVOK 15/12 Q1016 NOSIG

TAF TAF LZIB
Valide du 03 à 06h jusqu'au 04 à 06h UTC


030500Z 0306/0406 VRB02KT CAVOK
BECMG 0308/0310 16008KT 9999 FEW040
TEMPO 0318/0403 -SHRA FEW035TCU SCT045



MET'MAP, la Météo Aéronautique d'un coup d'oeil ! - Copyright ORBIFLY Décembre 2007 - Disclaimer

ORBIFLY MET'MAP TEAM :

Programmation & Développement : Alexandra Zaïnal
Sur une idée originale de : Baudouin d'Aumeries
Assistance à la programmation : Marc-Olivier Méhu
Soutien technique & logistique : Manuel Goepfert

Contact : metmap@orbifly.com




SOURCES & CREDITS :

   NOAA